Meta, Missouri
Current Conditions -  °F | °C
As of 10:53 PM on Friday 28 Nov 2014 (Local Time) from KJEF Reporting Station
Clear Clear  
Wind Chill:   Ceiling: Unl
Heat Index:   Visibility: 10mi
Dew Point:   Wind: 6mph
Humidity: 59%   Direction: 130°SE
Pressure: 29.84"   Gusts: NA
Location:  38.31°N, 92.17°W
Report Text: KJEF 290453Z AUTO 13005KT 10SM CLR 09/02 A2984 RMK AO2 SLP094 T00940017 $
Loading
Personal Weather Stations






























Interactive Weather Map New forecast layout! Learn more

10-Day Weather Forecast

Advertisements
Track Severe Weather on mobile